sensor_id;sensor_type;location;lat;lon;timestamp;temperature;humidity
37410;DHT22;23275;48.914;12.566;2023-09-19T00:02:16;15.60;99.90
37410;DHT22;23275;48.914;12.566;2023-09-19T00:04:43;15.60;99.90
37410;DHT22;23275;48.914;12.566;2023-09-19T00:07:08;15.70;99.90
37410;DHT22;23275;48.914;12.566;2023-09-19T00:09:34;15.60;99.90
37410;DHT22;23275;48.914;12.566;2023-09-19T00:12:05;15.60;99.90
37410;DHT22;23275;48.914;12.566;2023-09-19T00:14:30;15.50;99.90
37410;DHT22;23275;48.914;12.566;2023-09-19T00:17:00;15.50;99.90
37410;DHT22;23275;48.914;12.566;2023-09-19T00:19:26;15.50;99.90
37410;DHT22;23275;48.914;12.566;2023-09-19T00:21:51;15.50;99.90
37410;DHT22;23275;48.914;12.566;2023-09-19T00:24:18;15.60;99.90
37410;DHT22;23275;48.914;12.566;2023-09-19T00:26:44;15.60;99.90
37410;DHT22;23275;48.914;12.566;2023-09-19T00:29:11;15.60;99.90
37410;DHT22;23275;48.914;12.566;2023-09-19T00:31:43;15.60;99.90
37410;DHT22;23275;48.914;12.566;2023-09-19T00:34:09;15.50;99.90
37410;DHT22;23275;48.914;12.566;2023-09-19T00:36:36;15.60;99.90
37410;DHT22;23275;48.914;12.566;2023-09-19T00:39:05;15.50;99.90
37410;DHT22;23275;48.914;12.566;2023-09-19T00:41:32;15.50;99.90
37410;DHT22;23275;48.914;12.566;2023-09-19T00:43:57;15.50;99.90
37410;DHT22;23275;48.914;12.566;2023-09-19T00:46:25;15.40;99.90
37410;DHT22;23275;48.914;12.566;2023-09-19T00:48:51;15.40;99.90
37410;DHT22;23275;48.914;12.566;2023-09-19T00:51:16;15.50;99.90
37410;DHT22;23275;48.914;12.566;2023-09-19T00:53:46;15.40;99.90
37410;DHT22;23275;48.914;12.566;2023-09-19T00:56:13;15.50;99.90
37410;DHT22;23275;48.914;12.566;2023-09-19T00:58:40;15.50;99.90
37410;DHT22;23275;48.914;12.566;2023-09-19T01:01:06;15.50;99.90
37410;DHT22;23275;48.914;12.566;2023-09-19T01:03:36;15.50;99.90
37410;DHT22;23275;48.914;12.566;2023-09-19T01:06:02;15.50;99.90
37410;DHT22;23275;48.914;12.566;2023-09-19T01:08:28;15.50;99.90
37410;DHT22;23275;48.914;12.566;2023-09-19T01:11:13;15.50;99.90
37410;DHT22;23275;48.914;12.566;2023-09-19T01:14:02;15.50;99.90
37410;DHT22;23275;48.914;12.566;2023-09-19T01:16:43;15.40;99.90
37410;DHT22;23275;48.914;12.566;2023-09-19T01:22:16;15.40;99.90
37410;DHT22;23275;48.914;12.566;2023-09-19T01:30:33;15.20;99.90
37410;DHT22;23275;48.914;12.566;2023-09-19T01:33:01;15.20;99.90
37410;DHT22;23275;48.914;12.566;2023-09-19T01:35:27;15.20;99.90
37410;DHT22;23275;48.914;12.566;2023-09-19T01:37:53;15.20;99.90
37410;DHT22;23275;48.914;12.566;2023-09-19T01:40:21;15.20;99.90
37410;DHT22;23275;48.914;12.566;2023-09-19T01:43:09;15.20;99.90
37410;DHT22;23275;48.914;12.566;2023-09-19T01:45:50;15.20;99.90
37410;DHT22;23275;48.914;12.566;2023-09-19T01:48:43;15.20;99.90
37410;DHT22;23275;48.914;12.566;2023-09-19T01:51:10;15.30;99.90
37410;DHT22;23275;48.914;12.566;2023-09-19T01:53:51;15.30;99.90
37410;DHT22;23275;48.914;12.566;2023-09-19T01:59:26;15.30;99.90
37410;DHT22;23275;48.914;12.566;2023-09-19T02:01:54;15.20;99.90
37410;DHT22;23275;48.914;12.566;2023-09-19T02:04:20;15.20;99.90
37410;DHT22;23275;48.914;12.566;2023-09-19T02:06:46;15.20;99.90
37410;DHT22;23275;48.914;12.566;2023-09-19T02:09:13;15.20;99.90
37410;DHT22;23275;48.914;12.566;2023-09-19T02:11:40;15.20;99.90
37410;DHT22;23275;48.914;12.566;2023-09-19T02:14:06;15.30;99.90
37410;DHT22;23275;48.914;12.566;2023-09-19T02:16:34;15.20;99.90
37410;DHT22;23275;48.914;12.566;2023-09-19T02:19:00;15.30;99.90
37410;DHT22;23275;48.914;12.566;2023-09-19T02:21:26;15.30;99.90
37410;DHT22;23275;48.914;12.566;2023-09-19T02:23:55;15.40;99.90
37410;DHT22;23275;48.914;12.566;2023-09-19T02:26:20;15.40;99.90
37410;DHT22;23275;48.914;12.566;2023-09-19T02:28:47;15.40;99.90
37410;DHT22;23275;48.914;12.566;2023-09-19T02:31:12;15.40;99.90
37410;DHT22;23275;48.914;12.566;2023-09-19T02:33:38;15.40;99.90
37410;DHT22;23275;48.914;12.566;2023-09-19T02:36:04;15.50;99.90
37410;DHT22;23275;48.914;12.566;2023-09-19T02:38:31;15.50;99.90
37410;DHT22;23275;48.914;12.566;2023-09-19T02:40:56;15.50;99.90
37410;DHT22;23275;48.914;12.566;2023-09-19T02:43:22;15.50;99.90
37410;DHT22;23275;48.914;12.566;2023-09-19T02:45:49;15.50;99.90
37410;DHT22;23275;48.914;12.566;2023-09-19T02:48:15;15.50;99.90
37410;DHT22;23275;48.914;12.566;2023-09-19T02:50:42;15.50;99.90
37410;DHT22;23275;48.914;12.566;2023-09-19T02:53:07;15.50;99.90
37410;DHT22;23275;48.914;12.566;2023-09-19T02:55:33;15.50;99.90
37410;DHT22;23275;48.914;12.566;2023-09-19T02:57:59;15.50;99.90
37410;DHT22;23275;48.914;12.566;2023-09-19T03:00:27;15.50;99.90
37410;DHT22;23275;48.914;12.566;2023-09-19T03:02:54;15.50;99.90
37410;DHT22;23275;48.914;12.566;2023-09-19T03:05:20;15.50;99.90
37410;DHT22;23275;48.914;12.566;2023-09-19T03:07:47;15.50;99.90
37410;DHT22;23275;48.914;12.566;2023-09-19T03:10:17;15.50;99.90
37410;DHT22;23275;48.914;12.566;2023-09-19T03:12:43;15.50;99.90
37410;DHT22;23275;48.914;12.566;2023-09-19T03:15:09;15.50;99.90
37410;DHT22;23275;48.914;12.566;2023-09-19T03:17:35;15.50;99.90
37410;DHT22;23275;48.914;12.566;2023-09-19T03:20:02;15.50;99.90
37410;DHT22;23275;48.914;12.566;2023-09-19T03:22:28;15.50;99.90
37410;DHT22;23275;48.914;12.566;2023-09-19T03:24:53;15.50;99.90
37410;DHT22;23275;48.914;12.566;2023-09-19T03:27:19;15.50;99.90
37410;DHT22;23275;48.914;12.566;2023-09-19T03:29:46;15.50;99.90
37410;DHT22;23275;48.914;12.566;2023-09-19T03:32:12;15.50;99.90
37410;DHT22;23275;48.914;12.566;2023-09-19T03:34:38;15.50;99.90
37410;DHT22;23275;48.914;12.566;2023-09-19T03:37:09;15.50;99.90
37410;DHT22;23275;48.914;12.566;2023-09-19T03:39:34;15.50;99.90
37410;DHT22;23275;48.914;12.566;2023-09-19T03:42:01;15.50;99.90
37410;DHT22;23275;48.914;12.566;2023-09-19T03:44:28;15.50;99.90
37410;DHT22;23275;48.914;12.566;2023-09-19T03:46:53;15.50;99.90
37410;DHT22;23275;48.914;12.566;2023-09-19T03:49:21;15.50;99.90
37410;DHT22;23275;48.914;12.566;2023-09-19T03:51:46;15.50;99.90
37410;DHT22;23275;48.914;12.566;2023-09-19T03:54:12;15.50;99.90
37410;DHT22;23275;48.914;12.566;2023-09-19T03:56:38;15.50;99.90
37410;DHT22;23275;48.914;12.566;2023-09-19T03:59:03;15.50;99.90
37410;DHT22;23275;48.914;12.566;2023-09-19T04:01:29;15.50;99.90
37410;DHT22;23275;48.914;12.566;2023-09-19T04:03:57;15.50;99.90
37410;DHT22;23275;48.914;12.566;2023-09-19T04:06:23;15.50;99.90
37410;DHT22;23275;48.914;12.566;2023-09-19T04:08:48;15.50;99.90
37410;DHT22;23275;48.914;12.566;2023-09-19T04:11:14;15.50;99.90
37410;DHT22;23275;48.914;12.566;2023-09-19T04:13:40;15.50;99.90
37410;DHT22;23275;48.914;12.566;2023-09-19T04:16:05;15.50;99.90
37410;DHT22;23275;48.914;12.566;2023-09-19T04:18:32;15.50;99.90
37410;DHT22;23275;48.914;12.566;2023-09-19T04:20:59;15.50;99.90
37410;DHT22;23275;48.914;12.566;2023-09-19T04:23:28;15.50;99.90
37410;DHT22;23275;48.914;12.566;2023-09-19T04:25:53;15.50;99.90
37410;DHT22;23275;48.914;12.566;2023-09-19T04:28:19;15.60;99.90
37410;DHT22;23275;48.914;12.566;2023-09-19T04:30:45;15.60;99.90
37410;DHT22;23275;48.914;12.566;2023-09-19T04:33:10;15.60;99.90
37410;DHT22;23275;48.914;12.566;2023-09-19T04:35:39;15.60;99.90
37410;DHT22;23275;48.914;12.566;2023-09-19T04:38:07;15.60;99.90
37410;DHT22;23275;48.914;12.566;2023-09-19T04:40:33;15.60;99.90
37410;DHT22;23275;48.914;12.566;2023-09-19T04:42:59;15.60;99.90
37410;DHT22;23275;48.914;12.566;2023-09-19T04:45:26;15.70;99.90
37410;DHT22;23275;48.914;12.566;2023-09-19T04:47:52;15.70;99.90
37410;DHT22;23275;48.914;12.566;2023-09-19T04:50:19;15.70;99.90
37410;DHT22;23275;48.914;12.566;2023-09-19T04:52:49;15.80;99.90
37410;DHT22;23275;48.914;12.566;2023-09-19T04:55:17;15.80;99.90
37410;DHT22;23275;48.914;12.566;2023-09-19T04:57:47;15.80;99.90
37410;DHT22;23275;48.914;12.566;2023-09-19T05:00:17;15.80;99.90
37410;DHT22;23275;48.914;12.566;2023-09-19T05:02:45;15.80;99.90
37410;DHT22;23275;48.914;12.566;2023-09-19T05:05:11;15.70;99.90
37410;DHT22;23275;48.914;12.566;2023-09-19T05:07:44;15.70;99.90
37410;DHT22;23275;48.914;12.566;2023-09-19T05:10:10;15.70;99.90
37410;DHT22;23275;48.914;12.566;2023-09-19T05:12:37;15.60;99.90
37410;DHT22;23275;48.914;12.566;2023-09-19T05:15:03;15.60;99.90
37410;DHT22;23275;48.914;12.566;2023-09-19T05:17:30;15.60;99.90
37410;DHT22;23275;48.914;12.566;2023-09-19T05:19:57;15.70;99.90
37410;DHT22;23275;48.914;12.566;2023-09-19T05:22:23;15.70;99.90
37410;DHT22;23275;48.914;12.566;2023-09-19T05:24:50;15.70;99.90
37410;DHT22;23275;48.914;12.566;2023-09-19T05:27:17;15.70;99.90
37410;DHT22;23275;48.914;12.566;2023-09-19T05:29:43;15.70;99.90
37410;DHT22;23275;48.914;12.566;2023-09-19T05:32:12;15.70;99.90
37410;DHT22;23275;48.914;12.566;2023-09-19T05:34:38;15.70;99.90
37410;DHT22;23275;48.914;12.566;2023-09-19T05:37:04;15.70;99.90
37410;DHT22;23275;48.914;12.566;2023-09-19T05:39:32;15.80;99.90
37410;DHT22;23275;48.914;12.566;2023-09-19T05:41:58;15.80;99.90
37410;DHT22;23275;48.914;12.566;2023-09-19T05:44:25;15.80;99.90
37410;DHT22;23275;48.914;12.566;2023-09-19T05:46:51;15.90;99.90
37410;DHT22;23275;48.914;12.566;2023-09-19T05:49:17;15.90;99.90
37410;DHT22;23275;48.914;12.566;2023-09-19T05:51:43;15.90;99.90
37410;DHT22;23275;48.914;12.566;2023-09-19T05:54:09;15.90;99.90
37410;DHT22;23275;48.914;12.566;2023-09-19T05:56:36;16.00;99.90
37410;DHT22;23275;48.914;12.566;2023-09-19T05:59:01;16.00;99.90
37410;DHT22;23275;48.914;12.566;2023-09-19T06:01:29;16.00;99.90
37410;DHT22;23275;48.914;12.566;2023-09-19T06:03:56;16.10;99.90
37410;DHT22;23275;48.914;12.566;2023-09-19T06:06:21;16.10;99.90
37410;DHT22;23275;48.914;12.566;2023-09-19T06:08:47;16.10;99.90
37410;DHT22;23275;48.914;12.566;2023-09-19T06:11:16;16.20;99.90
37410;DHT22;23275;48.914;12.566;2023-09-19T06:13:41;16.20;99.90
37410;DHT22;23275;48.914;12.566;2023-09-19T06:16:07;16.20;99.90
37410;DHT22;23275;48.914;12.566;2023-09-19T06:18:32;16.30;99.90
37410;DHT22;23275;48.914;12.566;2023-09-19T06:20:59;16.30;99.90
37410;DHT22;23275;48.914;12.566;2023-09-19T06:23:25;16.30;99.90
37410;DHT22;23275;48.914;12.566;2023-09-19T06:25:52;16.30;99.90
37410;DHT22;23275;48.914;12.566;2023-09-19T06:28:18;16.40;99.90
37410;DHT22;23275;48.914;12.566;2023-09-19T06:30:49;16.50;99.90
37410;DHT22;23275;48.914;12.566;2023-09-19T06:33:14;16.60;99.90
37410;DHT22;23275;48.914;12.566;2023-09-19T06:35:40;16.70;99.90
37410;DHT22;23275;48.914;12.566;2023-09-19T06:38:07;16.80;99.90
37410;DHT22;23275;48.914;12.566;2023-09-19T06:40:34;17.00;99.90
37410;DHT22;23275;48.914;12.566;2023-09-19T06:43:00;17.00;99.90
37410;DHT22;23275;48.914;12.566;2023-09-19T06:45:28;17.10;99.90
37410;DHT22;23275;48.914;12.566;2023-09-19T06:47:53;17.10;99.90
37410;DHT22;23275;48.914;12.566;2023-09-19T06:50:23;17.20;99.90
37410;DHT22;23275;48.914;12.566;2023-09-19T06:52:50;17.60;99.90
37410;DHT22;23275;48.914;12.566;2023-09-19T06:55:17;17.80;99.90
37410;DHT22;23275;48.914;12.566;2023-09-19T06:57:45;18.10;99.90
37410;DHT22;23275;48.914;12.566;2023-09-19T07:00:12;18.40;99.90
37410;DHT22;23275;48.914;12.566;2023-09-19T07:05:27;18.90;99.90
37410;DHT22;23275;48.914;12.566;2023-09-19T07:07:53;19.10;99.90
37410;DHT22;23275;48.914;12.566;2023-09-19T07:10:20;19.30;99.90
37410;DHT22;23275;48.914;12.566;2023-09-19T07:12:54;19.20;99.90
37410;DHT22;23275;48.914;12.566;2023-09-19T07:15:20;19.20;99.90
37410;DHT22;23275;48.914;12.566;2023-09-19T07:17:48;19.10;99.90
37410;DHT22;23275;48.914;12.566;2023-09-19T07:20:13;19.10;99.90
37410;DHT22;23275;48.914;12.566;2023-09-19T07:22:41;19.00;99.90
37410;DHT22;23275;48.914;12.566;2023-09-19T07:25:07;18.90;99.90
37410;DHT22;23275;48.914;12.566;2023-09-19T07:27:33;18.90;99.90
37410;DHT22;23275;48.914;12.566;2023-09-19T07:29:59;18.80;99.90
37410;DHT22;23275;48.914;12.566;2023-09-19T07:32:24;18.70;99.90
37410;DHT22;23275;48.914;12.566;2023-09-19T07:34:50;18.60;99.90
37410;DHT22;23275;48.914;12.566;2023-09-19T07:37:16;18.60;99.90
37410;DHT22;23275;48.914;12.566;2023-09-19T07:39:42;18.60;99.90
37410;DHT22;23275;48.914;12.566;2023-09-19T07:42:08;18.50;99.90
37410;DHT22;23275;48.914;12.566;2023-09-19T07:44:35;18.50;99.90
37410;DHT22;23275;48.914;12.566;2023-09-19T07:47:01;18.50;99.90
37410;DHT22;23275;48.914;12.566;2023-09-19T07:49:28;18.60;99.90
37410;DHT22;23275;48.914;12.566;2023-09-19T07:51:54;18.70;99.90
37410;DHT22;23275;48.914;12.566;2023-09-19T07:54:20;19.00;99.90
37410;DHT22;23275;48.914;12.566;2023-09-19T07:56:46;19.30;99.90
37410;DHT22;23275;48.914;12.566;2023-09-19T07:59:12;19.60;99.90
37410;DHT22;23275;48.914;12.566;2023-09-19T08:01:39;19.90;99.90
37410;DHT22;23275;48.914;12.566;2023-09-19T08:04:07;20.10;99.90
37410;DHT22;23275;48.914;12.566;2023-09-19T08:06:33;20.10;99.90
37410;DHT22;23275;48.914;12.566;2023-09-19T08:08:58;20.00;99.90
37410;DHT22;23275;48.914;12.566;2023-09-19T08:11:26;20.30;99.90
37410;DHT22;23275;48.914;12.566;2023-09-19T08:13:51;20.90;99.90
37410;DHT22;23275;48.914;12.566;2023-09-19T08:16:17;21.20;99.90
37410;DHT22;23275;48.914;12.566;2023-09-19T08:18:48;21.40;99.90
37410;DHT22;23275;48.914;12.566;2023-09-19T08:21:14;21.40;99.90
37410;DHT22;23275;48.914;12.566;2023-09-19T08:23:40;21.40;99.90
37410;DHT22;23275;48.914;12.566;2023-09-19T08:26:06;21.00;99.90
37410;DHT22;23275;48.914;12.566;2023-09-19T08:28:35;20.50;99.90
37410;DHT22;23275;48.914;12.566;2023-09-19T08:31:05;20.10;99.90
37410;DHT22;23275;48.914;12.566;2023-09-19T08:33:35;19.70;99.90
37410;DHT22;23275;48.914;12.566;2023-09-19T08:36:02;19.60;99.90
37410;DHT22;23275;48.914;12.566;2023-09-19T08:38:31;19.50;99.90
37410;DHT22;23275;48.914;12.566;2023-09-19T08:41:04;19.20;99.90
37410;DHT22;23275;48.914;12.566;2023-09-19T08:43:30;19.10;99.90
37410;DHT22;23275;48.914;12.566;2023-09-19T08:48:34;19.20;99.90
37410;DHT22;23275;48.914;12.566;2023-09-19T08:51:06;19.40;99.90
37410;DHT22;23275;48.914;12.566;2023-09-19T08:53:51;19.50;99.90
37410;DHT22;23275;48.914;12.566;2023-09-19T08:56:18;19.80;99.90
37410;DHT22;23275;48.914;12.566;2023-09-19T08:58:57;23.40;99.90
37410;DHT22;23275;48.914;12.566;2023-09-19T09:01:27;29.60;99.90
37410;DHT22;23275;48.914;12.566;2023-09-19T09:03:54;31.40;99.90
37410;DHT22;23275;48.914;12.566;2023-09-19T09:06:21;30.10;99.90
37410;DHT22;23275;48.914;12.566;2023-09-19T09:08:47;30.90;99.40
37410;DHT22;23275;48.914;12.566;2023-09-19T09:11:14;34.20;91.10
37410;DHT22;23275;48.914;12.566;2023-09-19T09:13:40;32.30;91.00
37410;DHT22;23275;48.914;12.566;2023-09-19T09:16:07;34.10;88.80
37410;DHT22;23275;48.914;12.566;2023-09-19T09:18:33;33.30;86.00
37410;DHT22;23275;48.914;12.566;2023-09-19T09:20:59;30.50;89.20
37410;DHT22;23275;48.914;12.566;2023-09-19T09:23:26;28.30;92.90
37410;DHT22;23275;48.914;12.566;2023-09-19T09:25:55;26.70;96.20
37410;DHT22;23275;48.914;12.566;2023-09-19T09:28:27;25.50;99.90
37410;DHT22;23275;48.914;12.566;2023-09-19T09:30:54;24.60;99.90
37410;DHT22;23275;48.914;12.566;2023-09-19T09:33:19;23.90;99.90
37410;DHT22;23275;48.914;12.566;2023-09-19T09:35:54;23.40;99.90
37410;DHT22;23275;48.914;12.566;2023-09-19T09:38:23;22.90;99.90
37410;DHT22;23275;48.914;12.566;2023-09-19T09:40:56;22.70;99.90
37410;DHT22;23275;48.914;12.566;2023-09-19T09:43:38;22.50;99.90
37410;DHT22;23275;48.914;12.566;2023-09-19T09:46:16;22.10;99.90
37410;DHT22;23275;48.914;12.566;2023-09-19T09:48:59;21.70;99.90
37410;DHT22;23275;48.914;12.566;2023-09-19T09:52:03;21.50;99.90
37410;DHT22;23275;48.914;12.566;2023-09-19T09:55:04;21.40;99.90
37410;DHT22;23275;48.914;12.566;2023-09-19T09:57:34;21.50;99.90
37410;DHT22;23275;48.914;12.566;2023-09-19T10:00:01;21.30;99.90
37410;DHT22;23275;48.914;12.566;2023-09-19T10:02:36;21.10;99.90
37410;DHT22;23275;48.914;12.566;2023-09-19T10:05:18;21.00;99.90
37410;DHT22;23275;48.914;12.566;2023-09-19T10:07:43;20.80;99.90
37410;DHT22;23275;48.914;12.566;2023-09-19T10:10:37;20.70;99.90
37410;DHT22;23275;48.914;12.566;2023-09-19T10:13:07;20.60;99.90
37410;DHT22;23275;48.914;12.566;2023-09-19T10:15:38;20.50;99.90
37410;DHT22;23275;48.914;12.566;2023-09-19T10:18:07;20.50;99.90
37410;DHT22;23275;48.914;12.566;2023-09-19T10:20:37;20.30;99.90
37410;DHT22;23275;48.914;12.566;2023-09-19T10:23:09;20.20;99.90
37410;DHT22;23275;48.914;12.566;2023-09-19T10:25:43;19.90;99.90
37410;DHT22;23275;48.914;12.566;2023-09-19T10:28:10;19.70;99.90
37410;DHT22;23275;48.914;12.566;2023-09-19T10:30:46;19.50;99.90
37410;DHT22;23275;48.914;12.566;2023-09-19T10:33:17;19.20;99.90
37410;DHT22;23275;48.914;12.566;2023-09-19T10:35:47;18.80;99.90
37410;DHT22;23275;48.914;12.566;2023-09-19T10:38:18;18.40;99.90
37410;DHT22;23275;48.914;12.566;2023-09-19T10:40:51;18.10;99.90
37410;DHT22;23275;48.914;12.566;2023-09-19T10:43:21;17.90;99.90
37410;DHT22;23275;48.914;12.566;2023-09-19T10:45:48;17.80;99.90
37410;DHT22;23275;48.914;12.566;2023-09-19T10:48:19;17.90;99.90
37410;DHT22;23275;48.914;12.566;2023-09-19T10:50:58;17.80;99.90
37410;DHT22;23275;48.914;12.566;2023-09-19T10:53:40;17.80;99.90
37410;DHT22;23275;48.914;12.566;2023-09-19T10:56:09;17.90;99.90
37410;DHT22;23275;48.914;12.566;2023-09-19T10:58:43;18.00;99.90
37410;DHT22;23275;48.914;12.566;2023-09-19T11:01:12;18.20;99.90
37410;DHT22;23275;48.914;12.566;2023-09-19T11:03:38;18.40;99.90
37410;DHT22;23275;48.914;12.566;2023-09-19T11:06:16;18.60;99.90
37410;DHT22;23275;48.914;12.566;2023-09-19T11:09:14;18.90;99.90
37410;DHT22;23275;48.914;12.566;2023-09-19T11:11:42;18.80;99.90
37410;DHT22;23275;48.914;12.566;2023-09-19T11:30:47;19.10;99.90
37410;DHT22;23275;48.914;12.566;2023-09-19T11:33:24;19.00;99.90
37410;DHT22;23275;48.914;12.566;2023-09-19T11:36:09;19.10;99.90
37410;DHT22;23275;48.914;12.566;2023-09-19T11:46:32;19.80;99.90
37410;DHT22;23275;48.914;12.566;2023-09-19T11:49:08;20.00;99.90
37410;DHT22;23275;48.914;12.566;2023-09-19T11:51:40;20.20;99.90
37410;DHT22;23275;48.914;12.566;2023-09-19T11:54:10;20.20;99.90
37410;DHT22;23275;48.914;12.566;2023-09-19T11:56:41;20.40;99.90
37410;DHT22;23275;48.914;12.566;2023-09-19T11:59:08;20.70;99.90
37410;DHT22;23275;48.914;12.566;2023-09-19T12:01:33;21.00;99.90
37410;DHT22;23275;48.914;12.566;2023-09-19T12:04:01;21.20;99.90
37410;DHT22;23275;48.914;12.566;2023-09-19T12:06:30;21.30;99.90
37410;DHT22;23275;48.914;12.566;2023-09-19T12:08:58;21.50;99.90
37410;DHT22;23275;48.914;12.566;2023-09-19T12:11:29;21.50;99.90
37410;DHT22;23275;48.914;12.566;2023-09-19T12:13:58;21.50;99.90
37410;DHT22;23275;48.914;12.566;2023-09-19T12:16:26;21.50;99.90
37410;DHT22;23275;48.914;12.566;2023-09-19T12:18:56;21.70;99.90
37410;DHT22;23275;48.914;12.566;2023-09-19T12:21:27;21.70;99.90
37410;DHT22;23275;48.914;12.566;2023-09-19T12:26:30;21.80;99.90
37410;DHT22;23275;48.914;12.566;2023-09-19T12:28:59;21.80;99.90
37410;DHT22;23275;48.914;12.566;2023-09-19T12:31:27;22.10;99.90
37410;DHT22;23275;48.914;12.566;2023-09-19T12:33:54;22.20;99.90
37410;DHT22;23275;48.914;12.566;2023-09-19T12:36:21;22.10;99.90
37410;DHT22;23275;48.914;12.566;2023-09-19T12:38:57;22.00;99.90
37410;DHT22;23275;48.914;12.566;2023-09-19T12:41:26;21.90;99.90
37410;DHT22;23275;48.914;12.566;2023-09-19T12:43:55;21.80;99.90
37410;DHT22;23275;48.914;12.566;2023-09-19T12:46:21;21.70;99.90
37410;DHT22;23275;48.914;12.566;2023-09-19T12:49:19;21.80;99.90
37410;DHT22;23275;48.914;12.566;2023-09-19T12:51:48;21.60;99.90
37410;DHT22;23275;48.914;12.566;2023-09-19T12:54:14;21.50;99.90
37410;DHT22;23275;48.914;12.566;2023-09-19T12:56:43;21.40;99.90
37410;DHT22;23275;48.914;12.566;2023-09-19T12:59:14;21.40;99.90
37410;DHT22;23275;48.914;12.566;2023-09-19T13:01:41;21.40;99.90
37410;DHT22;23275;48.914;12.566;2023-09-19T13:06:45;21.40;99.90
37410;DHT22;23275;48.914;12.566;2023-09-19T13:09:11;21.30;99.90
37410;DHT22;23275;48.914;12.566;2023-09-19T13:11:38;21.40;99.90
37410;DHT22;23275;48.914;12.566;2023-09-19T13:14:23;21.40;99.90
37410;DHT22;23275;48.914;12.566;2023-09-19T13:17:05;21.40;99.90
37410;DHT22;23275;48.914;12.566;2023-09-19T13:19:51;21.40;99.90
37410;DHT22;23275;48.914;12.566;2023-09-19T13:22:42;21.40;99.90
37410;DHT22;23275;48.914;12.566;2023-09-19T13:25:13;21.50;99.90
37410;DHT22;23275;48.914;12.566;2023-09-19T13:27:45;21.50;99.90
37410;DHT22;23275;48.914;12.566;2023-09-19T13:30:14;21.50;99.90
37410;DHT22;23275;48.914;12.566;2023-09-19T13:32:41;21.50;99.90
37410;DHT22;23275;48.914;12.566;2023-09-19T13:35:08;21.50;99.90
37410;DHT22;23275;48.914;12.566;2023-09-19T13:37:39;21.40;99.90
37410;DHT22;23275;48.914;12.566;2023-09-19T13:40:09;21.40;99.90
37410;DHT22;23275;48.914;12.566;2023-09-19T13:42:35;21.40;99.90
37410;DHT22;23275;48.914;12.566;2023-09-19T13:45:05;21.40;99.90
37410;DHT22;23275;48.914;12.566;2023-09-19T13:47:32;21.40;99.90
37410;DHT22;23275;48.914;12.566;2023-09-19T13:49:58;21.50;99.90
37410;DHT22;23275;48.914;12.566;2023-09-19T13:52:24;21.50;99.90
37410;DHT22;23275;48.914;12.566;2023-09-19T13:54:52;21.60;99.90
37410;DHT22;23275;48.914;12.566;2023-09-19T13:57:24;21.60;99.90
37410;DHT22;23275;48.914;12.566;2023-09-19T13:59:51;21.50;99.90
37410;DHT22;23275;48.914;12.566;2023-09-19T14:02:17;21.50;99.90
37410;DHT22;23275;48.914;12.566;2023-09-19T14:04:44;21.30;99.90
37410;DHT22;23275;48.914;12.566;2023-09-19T14:07:09;21.30;99.90
37410;DHT22;23275;48.914;12.566;2023-09-19T14:09:36;21.40;99.90
37410;DHT22;23275;48.914;12.566;2023-09-19T14:12:02;21.40;99.90
37410;DHT22;23275;48.914;12.566;2023-09-19T14:14:28;21.30;99.90
37410;DHT22;23275;48.914;12.566;2023-09-19T14:16:54;21.30;99.90
37410;DHT22;23275;48.914;12.566;2023-09-19T14:19:20;21.20;99.90
37410;DHT22;23275;48.914;12.566;2023-09-19T14:21:46;21.20;99.90
37410;DHT22;23275;48.914;12.566;2023-09-19T14:24:16;21.20;99.90
37410;DHT22;23275;48.914;12.566;2023-09-19T14:26:43;21.20;99.90
37410;DHT22;23275;48.914;12.566;2023-09-19T14:29:08;21.20;99.90
37410;DHT22;23275;48.914;12.566;2023-09-19T14:31:37;21.10;99.90
37410;DHT22;23275;48.914;12.566;2023-09-19T14:34:03;20.90;99.90
37410;DHT22;23275;48.914;12.566;2023-09-19T14:36:29;20.80;99.90
37410;DHT22;23275;48.914;12.566;2023-09-19T14:38:55;20.80;99.90
37410;DHT22;23275;48.914;12.566;2023-09-19T14:41:23;20.80;99.90
37410;DHT22;23275;48.914;12.566;2023-09-19T14:43:53;20.80;99.90
37410;DHT22;23275;48.914;12.566;2023-09-19T14:46:21;20.70;99.90
37410;DHT22;23275;48.914;12.566;2023-09-19T14:48:47;20.80;99.90
37410;DHT22;23275;48.914;12.566;2023-09-19T14:51:13;20.80;99.90
37410;DHT22;23275;48.914;12.566;2023-09-19T14:53:39;20.80;99.90
37410;DHT22;23275;48.914;12.566;2023-09-19T14:56:07;20.70;99.90
37410;DHT22;23275;48.914;12.566;2023-09-19T14:58:33;20.70;99.90
37410;DHT22;23275;48.914;12.566;2023-09-19T15:01:09;20.70;99.90
37410;DHT22;23275;48.914;12.566;2023-09-19T15:03:39;20.70;99.90
37410;DHT22;23275;48.914;12.566;2023-09-19T15:06:07;20.60;99.90
37410;DHT22;23275;48.914;12.566;2023-09-19T15:08:35;20.50;99.90
37410;DHT22;23275;48.914;12.566;2023-09-19T15:11:09;20.50;99.90
37410;DHT22;23275;48.914;12.566;2023-09-19T15:13:36;20.40;99.90
37410;DHT22;23275;48.914;12.566;2023-09-19T15:16:06;20.30;99.90
37410;DHT22;23275;48.914;12.566;2023-09-19T15:18:42;20.30;99.90
37410;DHT22;23275;48.914;12.566;2023-09-19T15:21:09;20.30;99.90
37410;DHT22;23275;48.914;12.566;2023-09-19T15:23:36;20.30;99.90
37410;DHT22;23275;48.914;12.566;2023-09-19T15:26:06;20.20;99.90
37410;DHT22;23275;48.914;12.566;2023-09-19T15:28:33;20.20;99.90
37410;DHT22;23275;48.914;12.566;2023-09-19T15:31:03;20.20;99.90
37410;DHT22;23275;48.914;12.566;2023-09-19T15:33:32;20.20;99.90
37410;DHT22;23275;48.914;12.566;2023-09-19T15:36:07;20.10;99.90
37410;DHT22;23275;48.914;12.566;2023-09-19T15:39:02;20.10;99.90
37410;DHT22;23275;48.914;12.566;2023-09-19T15:41:30;20.00;99.90
37410;DHT22;23275;48.914;12.566;2023-09-19T15:43:57;20.00;99.90
37410;DHT22;23275;48.914;12.566;2023-09-19T15:46:24;19.90;99.90
37410;DHT22;23275;48.914;12.566;2023-09-19T15:48:52;19.90;99.90
37410;DHT22;23275;48.914;12.566;2023-09-19T15:51:18;19.80;99.90
37410;DHT22;23275;48.914;12.566;2023-09-19T15:53:45;19.80;99.90
37410;DHT22;23275;48.914;12.566;2023-09-19T15:56:12;19.80;99.90
37410;DHT22;23275;48.914;12.566;2023-09-19T15:58:45;19.70;99.90
37410;DHT22;23275;48.914;12.566;2023-09-19T16:01:11;19.70;99.90
37410;DHT22;23275;48.914;12.566;2023-09-19T16:03:38;19.60;99.90
37410;DHT22;23275;48.914;12.566;2023-09-19T16:06:17;19.50;99.90
37410;DHT22;23275;48.914;12.566;2023-09-19T16:08:46;19.50;99.90
37410;DHT22;23275;48.914;12.566;2023-09-19T16:11:15;19.40;99.90
37410;DHT22;23275;48.914;12.566;2023-09-19T16:13:42;19.40;99.90